Terminal Aerodrome Forecast
Issued by NWS

Home | Current Version | Previous Version | Text Only | Print | Product List | Glossary On
Versions: 1 2 3 4 5 6 7 8 9 10 11 12 13 14 15 16 17 18 19 20 21 22 23 24 25 26 27 28 29 30
000
FTUS41 KBTV 041720
TAFSLK
TAF
KSLK 041720Z 0418/0518 24008G16KT P6SM VCSH BKN050 BKN100
     FM050000 24004KT P6SM SCT050 BKN120
     FM050700 VRB03KT 3SM BR VCSH BKN080
     FM051200 24005KT P6SM SCT050 BKN120
     FM051600 26008KT P6SM VCSH BKN050=

USA.gov is the U.S. government's official web portal to all federal, state and local government web resources and services.